createdAt,value
2023-05-02T00:01:52.090Z,13.34
2023-05-02T00:03:58.134Z,13.33
2023-05-02T00:06:00.518Z,13.32
2023-05-02T00:08:02.224Z,13.31
2023-05-02T00:10:04.078Z,13.29
2023-05-02T00:12:05.819Z,13.28
2023-05-02T00:14:08.097Z,13.28
2023-05-02T00:16:09.826Z,13.27
2023-05-02T00:18:12.000Z,13.24
2023-05-02T00:20:21.154Z,13.25
2023-05-02T00:22:22.682Z,13.25
2023-05-02T00:24:24.325Z,13.25
2023-05-02T00:26:26.920Z,13.21
2023-05-02T00:28:28.398Z,13.23
2023-05-02T00:30:29.909Z,13.20
2023-05-02T00:32:31.499Z,13.18
2023-05-02T00:34:33.719Z,13.19
2023-05-02T00:36:35.261Z,13.17
2023-05-02T00:38:36.743Z,13.19
2023-05-02T00:40:49.773Z,13.15
2023-05-02T00:42:51.409Z,13.16
2023-05-02T00:44:53.426Z,13.14
2023-05-02T00:46:56.204Z,13.15
2023-05-02T00:48:57.908Z,13.12
2023-05-02T00:50:59.556Z,13.11
2023-05-02T00:53:02.283Z,13.12
2023-05-02T00:55:06.910Z,13.10
2023-05-02T00:57:08.610Z,13.08
2023-05-02T00:59:11.372Z,13.07
2023-05-02T01:01:31.523Z,13.05
2023-05-02T01:04:04.842Z,13.01
2023-05-02T01:06:38.952Z,12.95
2023-05-02T01:08:50.752Z,12.94
2023-05-02T01:11:17.149Z,12.94
2023-05-02T01:13:26.694Z,12.94
2023-05-02T01:15:28.655Z,12.92
2023-05-02T01:17:32.981Z,12.90
2023-05-02T01:19:41.957Z,12.87
2023-05-02T01:21:44.661Z,12.86
2023-05-02T01:23:57.398Z,12.86
2023-05-02T01:26:22.504Z,12.83
2023-05-02T01:28:59.657Z,12.83
2023-05-02T01:31:04.358Z,12.83
2023-05-02T01:33:08.706Z,12.82
2023-05-02T01:35:11.486Z,12.81
2023-05-02T01:37:14.616Z,12.80
2023-05-02T01:39:20.557Z,12.77
2023-05-02T01:41:25.012Z,12.77
2023-05-02T01:43:27.339Z,12.74
2023-05-02T01:45:29.249Z,12.72
2023-05-02T01:47:35.466Z,12.73
2023-05-02T01:49:38.481Z,12.70
2023-05-02T01:51:46.188Z,12.68
2023-05-02T01:53:50.346Z,12.67
2023-05-02T01:55:54.923Z,12.67
2023-05-02T01:57:57.789Z,12.63
2023-05-02T02:00:01.413Z,12.63
2023-05-02T02:02:08.553Z,12.58
2023-05-02T02:04:13.609Z,12.55
2023-05-02T02:06:16.136Z,12.53
2023-05-02T02:08:17.908Z,12.53
2023-05-02T02:10:19.786Z,12.49
2023-05-02T02:12:28.401Z,12.47
2023-05-02T02:14:35.035Z,12.44
2023-05-02T02:16:39.853Z,12.45
2023-05-02T02:18:44.673Z,12.43
2023-05-02T02:20:48.598Z,12.41
2023-05-02T02:22:51.424Z,12.39
2023-05-02T02:24:54.567Z,12.36
2023-05-02T02:26:56.082Z,12.34
2023-05-02T02:28:57.936Z,12.33
2023-05-02T02:30:59.787Z,12.30
2023-05-02T02:33:04.350Z,12.30
2023-05-02T02:35:07.678Z,12.26
2023-05-02T02:37:16.530Z,12.24
2023-05-02T02:39:28.346Z,12.22
2023-05-02T02:41:40.060Z,12.18
2023-05-02T02:43:56.986Z,12.18
2023-05-02T02:46:15.200Z,12.16
2023-05-02T02:48:29.959Z,12.14
2023-05-02T02:50:38.130Z,12.14
2023-05-02T02:52:58.156Z,12.10
2023-05-02T02:55:08.934Z,12.10
2023-05-02T02:57:16.439Z,12.08
2023-05-02T02:59:36.897Z,12.07
2023-05-02T03:01:41.908Z,12.06
2023-05-02T03:03:44.893Z,12.07
2023-05-02T03:05:47.097Z,12.03
2023-05-02T03:07:50.478Z,12.02
2023-05-02T03:09:55.248Z,11.99
2023-05-02T03:11:58.989Z,11.99
2023-05-02T03:14:04.447Z,11.98
2023-05-02T03:16:34.033Z,11.93
2023-05-02T03:18:36.936Z,11.92
2023-05-02T03:20:38.381Z,11.90
2023-05-02T03:22:39.911Z,11.90
2023-05-02T03:24:42.220Z,11.90
2023-05-02T03:26:47.825Z,11.89
2023-05-02T03:28:51.454Z,11.87
2023-05-02T03:31:00.463Z,11.88
2023-05-02T03:33:04.746Z,11.88
2023-05-02T03:35:07.465Z,11.87
2023-05-02T03:37:13.995Z,11.85
2023-05-02T03:39:15.725Z,11.85
2023-05-02T03:41:18.338Z,11.84
2023-05-02T03:43:20.287Z,11.82
2023-05-02T03:45:21.965Z,11.82
2023-05-02T03:47:25.622Z,11.80
2023-05-02T03:49:27.470Z,11.82
2023-05-02T03:51:29.443Z,11.81
2023-05-02T03:53:32.445Z,11.81
2023-05-02T03:55:39.506Z,11.80
2023-05-02T03:57:41.338Z,11.82
2023-05-02T03:59:45.813Z,11.80
2023-05-02T04:01:56.682Z,11.81
2023-05-02T04:04:07.037Z,11.82
2023-05-02T04:06:15.004Z,11.82
2023-05-02T04:08:19.088Z,11.83
2023-05-02T04:10:21.708Z,11.83
2023-05-02T04:12:28.794Z,11.81
2023-05-02T04:14:31.265Z,11.81
2023-05-02T04:16:33.897Z,11.82
2023-05-02T04:18:35.586Z,11.82
2023-05-02T04:20:44.334Z,11.83
2023-05-02T04:22:50.075Z,11.83
2023-05-02T04:24:51.725Z,11.84
2023-05-02T04:26:55.203Z,11.84
2023-05-02T04:28:56.831Z,11.85
2023-05-02T04:30:59.048Z,11.86
2023-05-02T04:33:02.113Z,11.86
2023-05-02T04:35:07.964Z,11.88
2023-05-02T04:37:09.786Z,11.87
2023-05-02T04:39:14.186Z,11.87
2023-05-02T04:41:22.805Z,11.90
2023-05-02T04:43:30.965Z,11.91
2023-05-02T04:45:36.917Z,11.91
2023-05-02T04:47:41.750Z,11.92
2023-05-02T04:49:43.761Z,11.95
2023-05-02T04:51:45.436Z,11.97
2023-05-02T04:53:48.909Z,11.97
2023-05-02T04:55:53.299Z,11.98
2023-05-02T04:57:54.994Z,12.01
2023-05-02T04:59:56.776Z,12.03
2023-05-02T05:01:58.760Z,12.02
2023-05-02T05:04:00.565Z,12.03
2023-05-02T05:06:02.551Z,12.05
2023-05-02T05:08:04.778Z,12.05
2023-05-02T05:10:11.631Z,12.08
2023-05-02T05:12:19.790Z,12.11
2023-05-02T05:14:21.932Z,12.11
2023-05-02T05:16:28.376Z,12.10
2023-05-02T05:18:30.961Z,12.13
2023-05-02T05:20:33.618Z,12.14
2023-05-02T05:22:41.425Z,12.14
2023-05-02T05:24:51.741Z,12.15
2023-05-02T05:26:54.160Z,12.20
2023-05-02T05:28:56.913Z,12.19
2023-05-02T05:31:06.578Z,12.18
2023-05-02T05:33:10.128Z,12.21
2023-05-02T05:35:19.293Z,12.23
2023-05-02T05:37:21.715Z,12.24
2023-05-02T05:39:23.966Z,12.26
2023-05-02T05:41:27.623Z,12.26
2023-05-02T05:43:38.384Z,12.28
2023-05-02T05:45:40.985Z,12.31
2023-05-02T05:47:42.991Z,12.33
2023-05-02T05:49:44.913Z,12.36
2023-05-02T05:51:51.212Z,12.38
2023-05-02T05:53:53.961Z,12.40
2023-05-02T05:55:57.197Z,12.43
2023-05-02T05:57:59.149Z,12.45
2023-05-02T06:00:04.219Z,12.46
2023-05-02T06:02:17.399Z,12.51
2023-05-02T06:04:19.351Z,12.54
2023-05-02T06:06:24.108Z,12.58
2023-05-02T06:08:28.378Z,12.61
2023-05-02T06:10:31.387Z,12.64
2023-05-02T06:12:32.909Z,12.67
2023-05-02T06:14:34.594Z,12.71
2023-05-02T06:16:36.408Z,12.74
2023-05-02T06:18:37.926Z,12.77
2023-05-02T06:20:39.674Z,12.80
2023-05-02T06:22:41.161Z,12.81
2023-05-02T06:24:42.955Z,12.85
2023-05-02T06:26:47.685Z,12.87
2023-05-02T06:28:49.344Z,12.88
2023-05-02T06:31:01.800Z,12.90
2023-05-02T06:33:06.314Z,12.92
2023-05-02T06:35:08.407Z,12.96
2023-05-02T06:37:09.984Z,12.98
2023-05-02T06:39:11.687Z,13.00
2023-05-02T06:41:17.286Z,13.03
2023-05-02T06:43:19.751Z,13.03
2023-05-02T06:45:21.387Z,13.07
2023-05-02T06:47:24.406Z,13.07
2023-05-02T06:49:26.689Z,13.08
2023-05-02T06:51:28.171Z,13.10
2023-05-02T06:53:32.383Z,13.12
2023-05-02T06:55:34.529Z,13.14
2023-05-02T06:57:36.123Z,13.14
2023-05-02T06:59:37.977Z,13.16
2023-05-02T07:01:39.632Z,13.18
2023-05-02T07:03:41.375Z,13.20
2023-05-02T07:05:42.953Z,13.23
2023-05-02T07:07:45.288Z,13.25
2023-05-02T07:09:46.935Z,13.27
2023-05-02T07:11:48.423Z,13.29
2023-05-02T07:13:50.239Z,13.33
2023-05-02T07:15:55.332Z,13.34
2023-05-02T07:17:57.324Z,13.36
2023-05-02T07:19:59.004Z,13.40
2023-05-02T07:22:00.998Z,13.46
2023-05-02T07:24:02.499Z,13.47
2023-05-02T07:26:06.444Z,13.50
2023-05-02T07:28:08.374Z,13.55
2023-05-02T07:30:10.325Z,13.59
2023-05-02T07:32:12.120Z,13.61
2023-05-02T07:34:13.798Z,13.65
2023-05-02T07:36:15.361Z,13.69
2023-05-02T07:38:16.994Z,13.73
2023-05-02T07:40:18.580Z,13.75
2023-05-02T07:42:20.377Z,13.78
2023-05-02T07:44:21.910Z,13.82
2023-05-02T07:46:24.314Z,13.85
2023-05-02T07:48:30.277Z,13.88
2023-05-02T07:50:31.792Z,13.90
2023-05-02T07:52:33.412Z,13.94
2023-05-02T07:54:35.773Z,13.98
2023-05-02T07:56:37.223Z,14.02
2023-05-02T07:58:38.795Z,14.06
2023-05-02T08:00:40.629Z,14.11
2023-05-02T08:02:42.776Z,14.15
2023-05-02T08:04:44.538Z,14.21
2023-05-02T08:06:46.223Z,14.28
2023-05-02T08:08:47.784Z,14.34
2023-05-02T08:10:51.487Z,14.41
2023-05-02T08:12:52.975Z,14.49
2023-05-02T08:14:54.516Z,14.57
2023-05-02T08:16:55.950Z,14.63
2023-05-02T08:18:57.489Z,14.73
2023-05-02T08:21:02.248Z,14.83
2023-05-02T08:23:06.693Z,14.96
2023-05-02T08:25:08.336Z,15.07
2023-05-02T08:27:12.439Z,15.21
2023-05-02T08:29:13.887Z,15.36
2023-05-02T08:31:15.690Z,15.54
2023-05-02T08:33:18.926Z,15.71
2023-05-02T08:35:20.630Z,15.91
2023-05-02T08:37:22.130Z,16.08
2023-05-02T08:39:23.593Z,16.29
2023-05-02T08:41:25.455Z,16.47
2023-05-02T08:43:27.081Z,16.66
2023-05-02T08:45:37.655Z,16.84
2023-05-02T08:47:40.762Z,17.00
2023-05-02T08:49:42.638Z,17.18
2023-05-02T08:51:45.346Z,17.32
2023-05-02T08:53:48.746Z,17.45
2023-05-02T08:55:50.308Z,17.59
2023-05-02T08:57:52.566Z,17.70
2023-05-02T08:59:54.321Z,17.83
2023-05-02T09:02:00.992Z,17.95
2023-05-02T09:04:03.306Z,18.05
2023-05-02T09:06:12.837Z,18.15
2023-05-02T09:08:22.494Z,18.24
2023-05-02T09:10:28.335Z,18.34
2023-05-02T09:12:29.910Z,18.44
2023-05-02T09:14:32.687Z,18.55
2023-05-02T09:16:40.193Z,18.66
2023-05-02T09:18:44.157Z,18.81
2023-05-02T09:20:46.393Z,18.93
2023-05-02T09:22:52.139Z,19.11
2023-05-02T09:24:57.513Z,19.27
2023-05-02T09:27:03.013Z,19.43
2023-05-02T09:29:08.249Z,19.59
2023-05-02T09:31:13.568Z,19.77
2023-05-02T09:33:27.309Z,19.96
2023-05-02T09:35:29.247Z,20.15
2023-05-02T09:37:39.395Z,20.35
2023-05-02T09:39:40.981Z,20.53
2023-05-02T09:41:47.881Z,20.71
2023-05-02T09:43:59.381Z,20.89
2023-05-02T09:46:06.640Z,21.09
2023-05-02T09:48:08.577Z,21.26
2023-05-02T09:50:10.926Z,21.42
2023-05-02T09:52:13.892Z,21.60
2023-05-02T09:54:37.201Z,21.79
2023-05-02T09:56:57.566Z,21.98
2023-05-02T09:59:16.010Z,22.19
2023-05-02T10:01:18.829Z,22.37
2023-05-02T10:03:24.530Z,22.54
2023-05-02T10:05:27.402Z,22.72
2023-05-02T10:07:29.739Z,22.88
2023-05-02T10:09:34.940Z,23.04
2023-05-02T10:11:39.580Z,23.17
2023-05-02T10:13:43.319Z,23.28
2023-05-02T10:15:47.007Z,23.36
2023-05-02T10:17:51.104Z,23.45
2023-05-02T10:20:26.952Z,23.52
2023-05-02T10:22:31.099Z,23.62
2023-05-02T10:24:33.556Z,23.69
2023-05-02T10:26:36.320Z,23.72
2023-05-02T10:28:38.840Z,23.75
2023-05-02T10:30:41.285Z,23.76
2023-05-02T10:32:46.150Z,23.76
2023-05-02T10:34:51.792Z,23.72
2023-05-02T10:36:55.303Z,23.68
2023-05-02T10:38:56.932Z,23.64
2023-05-02T10:41:07.287Z,23.57
2023-05-02T10:43:15.170Z,23.51
2023-05-02T10:45:38.594Z,23.43
2023-05-02T10:47:49.275Z,23.34
2023-05-02T10:49:57.964Z,23.26
2023-05-02T10:52:25.833Z,23.12
2023-05-02T10:54:27.267Z,23.01
2023-05-02T10:56:31.860Z,22.85
2023-05-02T10:58:34.186Z,22.74
2023-05-02T11:00:35.889Z,22.62
2023-05-02T11:02:43.430Z,22.51
2023-05-02T11:05:02.850Z,22.37
2023-05-02T11:07:04.859Z,22.31
2023-05-02T11:09:21.483Z,22.18
2023-05-02T11:11:50.780Z,22.08
2023-05-02T11:13:52.666Z,22.06
2023-05-02T11:15:55.912Z,22.00
2023-05-02T11:18:12.828Z,21.90
2023-05-02T11:20:14.538Z,21.85
2023-05-02T11:22:21.992Z,21.81
2023-05-02T11:24:44.378Z,21.72
2023-05-02T11:26:46.556Z,21.69
2023-05-02T11:28:52.905Z,21.65
2023-05-02T11:30:55.430Z,21.60
2023-05-02T11:32:59.330Z,21.55
2023-05-02T11:35:01.581Z,21.50
2023-05-02T11:37:17.307Z,21.44
2023-05-02T11:39:23.556Z,21.41
2023-05-02T11:41:44.488Z,21.39
2023-05-02T11:43:46.310Z,21.44
2023-05-02T11:45:48.450Z,21.54
2023-05-02T11:47:51.511Z,21.65
2023-05-02T11:49:56.262Z,21.75
2023-05-02T11:51:59.149Z,21.87
2023-05-02T11:54:00.765Z,22.00
2023-05-02T11:56:04.396Z,22.13
2023-05-02T11:58:15.724Z,22.26
2023-05-02T12:00:18.420Z,22.42
2023-05-02T12:02:21.440Z,22.56
2023-05-02T12:04:24.067Z,22.68
2023-05-02T12:06:27.095Z,22.80
2023-05-02T12:08:31.113Z,22.89
2023-05-02T12:10:41.437Z,22.95
2023-05-02T12:12:44.528Z,22.97
2023-05-02T12:14:46.001Z,22.96
2023-05-02T12:16:47.614Z,22.88
2023-05-02T12:18:49.598Z,22.79
2023-05-02T12:20:52.477Z,22.69
2023-05-02T12:22:54.470Z,22.57
2023-05-02T12:24:56.401Z,22.41
2023-05-02T12:27:15.197Z,22.20
2023-05-02T12:29:17.058Z,22.09
2023-05-02T12:31:19.960Z,21.94
2023-05-02T12:33:21.784Z,21.81
2023-05-02T12:35:30.324Z,21.67
2023-05-02T12:37:31.979Z,21.44
2023-05-02T12:39:41.124Z,21.31
2023-05-02T12:41:45.911Z,21.16
2023-05-02T12:43:49.582Z,21.02
2023-05-02T12:45:53.753Z,20.88
2023-05-02T12:47:55.948Z,20.74
2023-05-02T12:49:59.593Z,20.61
2023-05-02T12:52:05.415Z,20.50
2023-05-02T12:54:07.375Z,20.39
2023-05-02T12:56:10.322Z,20.25
2023-05-02T12:58:15.134Z,20.14
2023-05-02T13:00:18.220Z,20.06
2023-05-02T13:02:21.111Z,19.98
2023-05-02T13:04:41.555Z,19.89
2023-05-02T13:06:45.162Z,19.78
2023-05-02T13:08:48.633Z,19.72
2023-05-02T13:10:50.191Z,19.64
2023-05-02T13:12:58.494Z,19.58
2023-05-02T13:15:00.026Z,19.56
2023-05-02T13:17:01.838Z,19.53
2023-05-02T13:19:06.233Z,19.52
2023-05-02T13:21:16.361Z,19.51
2023-05-02T13:23:17.939Z,19.51
2023-05-02T13:25:19.401Z,19.52
2023-05-02T13:27:23.461Z,19.58
2023-05-02T13:29:24.893Z,19.64
2023-05-02T13:31:26.376Z,19.72
2023-05-02T13:33:28.060Z,19.79
2023-05-02T13:35:33.504Z,19.88
2023-05-02T13:37:36.739Z,19.98
2023-05-02T13:39:38.516Z,20.07
2023-05-02T13:41:40.048Z,20.16
2023-05-02T13:43:41.634Z,20.25
2023-05-02T13:45:43.043Z,20.34
2023-05-02T13:47:44.564Z,20.44
2023-05-02T13:49:46.045Z,20.53
2023-05-02T13:51:51.060Z,20.61
2023-05-02T13:53:52.490Z,20.71
2023-05-02T13:55:53.995Z,20.80
2023-05-02T13:57:58.297Z,20.87
2023-05-02T14:00:00.315Z,20.95
2023-05-02T14:02:02.158Z,21.03
2023-05-02T14:04:08.508Z,21.12
2023-05-02T14:06:10.301Z,21.20
2023-05-02T14:08:13.185Z,21.28
2023-05-02T14:10:14.869Z,21.35
2023-05-02T14:12:16.487Z,21.43
2023-05-02T14:14:17.950Z,21.49
2023-05-02T14:16:19.707Z,21.57
2023-05-02T14:18:24.249Z,21.63
2023-05-02T14:20:25.997Z,21.66
2023-05-02T14:22:27.572Z,21.60
2023-05-02T14:24:29.071Z,21.52
2023-05-02T14:26:30.665Z,21.51
2023-05-02T14:28:32.409Z,21.45
2023-05-02T14:30:33.932Z,21.38
2023-05-02T14:32:35.903Z,21.33
2023-05-02T14:34:37.828Z,21.37
2023-05-02T14:36:39.276Z,21.42
2023-05-02T14:38:40.765Z,21.48
2023-05-02T14:40:45.205Z,21.53
2023-05-02T14:42:47.002Z,21.59
2023-05-02T14:44:48.471Z,21.64
2023-05-02T14:46:54.136Z,21.67
2023-05-02T14:48:55.901Z,21.71
2023-05-02T14:50:59.021Z,21.73
2023-05-02T14:53:00.561Z,21.74
2023-05-02T14:55:02.760Z,21.76
2023-05-02T14:57:04.957Z,21.78
2023-05-02T14:59:06.462Z,21.81
2023-05-02T15:01:16.246Z,21.83
2023-05-02T15:03:17.953Z,21.85
2023-05-02T15:05:21.915Z,21.86
2023-05-02T15:07:30.769Z,21.88
2023-05-02T15:09:32.445Z,21.91
2023-05-02T15:11:33.992Z,21.93
2023-05-02T15:13:35.833Z,21.97
2023-05-02T15:15:37.533Z,21.99
2023-05-02T15:17:39.735Z,22.01
2023-05-02T15:19:41.392Z,22.01
2023-05-02T15:21:43.227Z,22.01
2023-05-02T15:23:44.706Z,22.02
2023-05-02T15:25:46.435Z,22.00
2023-05-02T15:27:48.012Z,21.94
2023-05-02T15:29:49.721Z,21.91
2023-05-02T15:31:51.613Z,21.86
2023-05-02T15:33:53.839Z,21.83
2023-05-02T15:35:58.746Z,21.78
2023-05-02T15:38:00.333Z,21.79
2023-05-02T15:40:04.154Z,21.78
2023-05-02T15:42:32.019Z,21.76
2023-05-02T15:44:37.647Z,21.73
2023-05-02T15:46:40.874Z,21.72
2023-05-02T15:48:43.614Z,21.71
2023-05-02T15:50:48.608Z,21.71
2023-05-02T15:52:50.073Z,21.70
2023-05-02T15:54:54.251Z,21.70
2023-05-02T15:56:58.543Z,21.66
2023-05-02T15:59:00.582Z,21.65
2023-05-02T16:01:04.049Z,21.62
2023-05-02T16:03:06.434Z,21.57
2023-05-02T16:05:08.280Z,21.54
2023-05-02T16:07:10.305Z,21.51
2023-05-02T16:09:12.984Z,21.50
2023-05-02T16:11:15.063Z,21.48
2023-05-02T16:13:16.921Z,21.47
2023-05-02T16:15:19.895Z,21.47
2023-05-02T16:17:21.531Z,21.45
2023-05-02T16:19:23.147Z,21.43
2023-05-02T16:21:24.655Z,21.43
2023-05-02T16:23:26.397Z,21.42
2023-05-02T16:25:27.910Z,21.40
2023-05-02T16:27:31.538Z,21.39
2023-05-02T16:29:33.225Z,21.37
2023-05-02T16:31:37.704Z,21.35
2023-05-02T16:33:39.689Z,21.33
2023-05-02T16:35:44.226Z,21.28
2023-05-02T16:37:46.042Z,21.24
2023-05-02T16:39:47.635Z,21.22
2023-05-02T16:41:49.386Z,21.19
2023-05-02T16:43:50.996Z,21.19
2023-05-02T16:46:06.425Z,21.10
2023-05-02T16:48:14.845Z,21.06
2023-05-02T16:50:17.908Z,20.99
2023-05-02T16:52:19.422Z,20.90
2023-05-02T16:54:21.229Z,20.84
2023-05-02T16:56:22.899Z,20.80
2023-05-02T16:58:25.326Z,20.75
2023-05-02T17:00:26.766Z,20.72
2023-05-02T17:02:28.378Z,20.68
2023-05-02T17:04:32.754Z,20.62
2023-05-02T17:06:34.693Z,20.58
2023-05-02T17:08:36.660Z,20.55
2023-05-02T17:10:38.189Z,20.53
2023-05-02T17:12:43.919Z,20.46
2023-05-02T17:14:46.153Z,20.44
2023-05-02T17:16:47.778Z,20.39
2023-05-02T17:18:49.489Z,20.35
2023-05-02T17:20:51.041Z,20.31
2023-05-02T17:22:54.298Z,20.29
2023-05-02T17:24:56.239Z,20.25
2023-05-02T17:26:57.823Z,20.20
2023-05-02T17:28:59.268Z,20.15
2023-05-02T17:31:01.163Z,20.08
2023-05-02T17:33:03.074Z,20.06
2023-05-02T17:35:09.727Z,20.03
2023-05-02T17:37:11.334Z,19.98
2023-05-02T17:39:13.449Z,19.97
2023-05-02T17:41:15.156Z,19.93
2023-05-02T17:43:16.699Z,19.92
2023-05-02T17:45:18.223Z,19.87
2023-05-02T17:47:20.080Z,19.85
2023-05-02T17:49:21.846Z,19.82
2023-05-02T17:51:23.462Z,19.76
2023-05-02T17:53:26.467Z,19.76
2023-05-02T17:55:27.959Z,19.71
2023-05-02T17:57:29.449Z,19.68
2023-05-02T17:59:31.379Z,19.63
2023-05-02T18:01:33.158Z,19.59
2023-05-02T18:03:35.439Z,19.54
2023-05-02T18:05:38.827Z,19.53
2023-05-02T18:07:42.567Z,19.48
2023-05-02T18:09:44.021Z,19.44
2023-05-02T18:11:45.658Z,19.40
2023-05-02T18:13:49.472Z,19.36
2023-05-02T18:16:04.643Z,19.33
2023-05-02T18:18:07.181Z,19.31
2023-05-02T18:20:10.190Z,19.27
2023-05-02T18:22:18.552Z,19.22
2023-05-02T18:24:21.187Z,19.18
2023-05-02T18:26:22.966Z,19.16
2023-05-02T18:28:24.585Z,19.11
2023-05-02T18:30:25.989Z,19.09
2023-05-02T18:32:27.480Z,19.06
2023-05-02T18:34:33.201Z,19.01
2023-05-02T18:36:34.878Z,18.97
2023-05-02T18:38:37.560Z,18.92
2023-05-02T18:40:39.056Z,18.88
2023-05-02T18:42:40.676Z,18.85
2023-05-02T18:44:42.234Z,18.81
2023-05-02T18:46:46.954Z,18.75
2023-05-02T18:48:51.380Z,18.70
2023-05-02T18:50:56.945Z,18.64
2023-05-02T18:52:58.385Z,18.58
2023-05-02T18:55:03.112Z,18.56
2023-05-02T18:57:07.561Z,18.50
2023-05-02T18:59:09.211Z,18.48
2023-05-02T19:01:15.019Z,18.42
2023-05-02T19:03:17.662Z,18.36
2023-05-02T19:05:20.992Z,18.31
2023-05-02T19:07:27.970Z,18.25
2023-05-02T19:09:29.473Z,18.21
2023-05-02T19:11:31.912Z,18.18
2023-05-02T19:13:33.516Z,18.16
2023-05-02T19:15:35.170Z,18.12
2023-05-02T19:17:36.709Z,18.04
2023-05-02T19:19:40.984Z,18.00
2023-05-02T19:21:42.610Z,17.98
2023-05-02T19:23:51.118Z,17.94
2023-05-02T19:25:56.772Z,17.90
2023-05-02T19:27:58.309Z,17.86
2023-05-02T19:30:00.044Z,17.82
2023-05-02T19:32:01.804Z,17.81
2023-05-02T19:34:05.389Z,17.76
2023-05-02T19:36:10.461Z,17.73
2023-05-02T19:38:12.415Z,17.69
2023-05-02T19:40:14.258Z,17.64
2023-05-02T19:42:18.227Z,17.63
2023-05-02T19:44:21.543Z,17.59
2023-05-02T19:46:23.249Z,17.58
2023-05-02T19:48:24.826Z,17.58
2023-05-02T19:50:26.457Z,17.55
2023-05-02T19:52:27.961Z,17.55
2023-05-02T19:54:29.428Z,17.54
2023-05-02T19:56:31.073Z,17.52
2023-05-02T19:58:32.930Z,17.49
2023-05-02T20:00:37.003Z,17.49
2023-05-02T20:02:40.491Z,17.46
2023-05-02T20:04:41.990Z,17.41
2023-05-02T20:06:43.490Z,17.38
2023-05-02T20:08:45.343Z,17.34
2023-05-02T20:10:47.023Z,17.31
2023-05-02T20:12:48.685Z,17.30
2023-05-02T20:14:50.406Z,17.27
2023-05-02T20:17:00.776Z,17.22
2023-05-02T20:19:04.349Z,17.19
2023-05-02T20:21:05.961Z,17.12
2023-05-02T20:23:10.356Z,17.08
2023-05-02T20:25:12.630Z,17.05
2023-05-02T20:27:14.448Z,17.04
2023-05-02T20:29:16.115Z,16.99
2023-05-02T20:31:22.827Z,16.95
2023-05-02T20:33:27.609Z,16.90
2023-05-02T20:35:35.145Z,16.88
2023-05-02T20:37:36.896Z,16.84
2023-05-02T20:39:38.437Z,16.81
2023-05-02T20:41:40.004Z,16.79
2023-05-02T20:43:44.843Z,16.75
2023-05-02T20:45:46.749Z,16.75
2023-05-02T20:47:51.105Z,16.72
2023-05-02T20:49:53.418Z,16.68
2023-05-02T20:51:55.024Z,16.66
2023-05-02T20:53:56.548Z,16.63
2023-05-02T20:55:58.041Z,16.56
2023-05-02T20:57:59.643Z,16.54
2023-05-02T21:00:01.714Z,16.47
2023-05-02T21:02:03.622Z,16.46
2023-05-02T21:04:05.819Z,16.41
2023-05-02T21:06:07.822Z,16.38
2023-05-02T21:08:09.461Z,16.36
2023-05-02T21:10:11.120Z,16.31
2023-05-02T21:12:12.812Z,16.29
2023-05-02T21:14:14.537Z,16.28
2023-05-02T21:16:20.854Z,16.24
2023-05-02T21:18:25.610Z,16.20
2023-05-02T21:20:27.676Z,16.17
2023-05-02T21:22:32.794Z,16.12
2023-05-02T21:24:34.311Z,16.07
2023-05-02T21:26:38.043Z,16.05
2023-05-02T21:28:40.999Z,16.02
2023-05-02T21:30:42.777Z,16.01
2023-05-02T21:32:45.003Z,15.97
2023-05-02T21:34:46.430Z,15.93
2023-05-02T21:36:47.976Z,15.88
2023-05-02T21:38:50.306Z,15.84
2023-05-02T21:40:52.037Z,15.83
2023-05-02T21:42:53.685Z,15.79
2023-05-02T21:44:55.341Z,15.76
2023-05-02T21:46:56.902Z,15.74
2023-05-02T21:49:00.672Z,15.73
2023-05-02T21:51:08.389Z,15.66
2023-05-02T21:53:10.371Z,15.64
2023-05-02T21:55:11.937Z,15.60
2023-05-02T21:57:13.465Z,15.56
2023-05-02T21:59:14.911Z,15.51
2023-05-02T22:01:17.031Z,15.46
2023-05-02T22:03:18.694Z,15.43
2023-05-02T22:05:20.208Z,15.40
2023-05-02T22:07:21.789Z,15.36
2023-05-02T22:09:26.174Z,15.32
2023-05-02T22:11:28.539Z,15.30
2023-05-02T22:13:30.238Z,15.27
2023-05-02T22:15:35.510Z,15.21
2023-05-02T22:17:36.994Z,15.18
2023-05-02T22:19:39.239Z,15.14
2023-05-02T22:21:40.754Z,15.11
2023-05-02T22:23:42.177Z,15.07
2023-05-02T22:25:46.333Z,15.05
2023-05-02T22:27:50.802Z,15.01
2023-05-02T22:29:58.347Z,14.97
2023-05-02T22:31:59.898Z,14.92
2023-05-02T22:34:04.340Z,14.90
2023-05-02T22:36:06.091Z,14.86
2023-05-02T22:38:11.009Z,14.83
2023-05-02T22:40:13.232Z,14.80
2023-05-02T22:42:15.123Z,14.76
2023-05-02T22:44:16.870Z,14.73
2023-05-02T22:46:18.802Z,14.69
2023-05-02T22:48:23.220Z,14.65
2023-05-02T22:50:26.123Z,14.61
2023-05-02T22:52:28.299Z,14.62
2023-05-02T22:54:29.798Z,14.59
2023-05-02T22:56:31.385Z,14.55
2023-05-02T22:58:32.887Z,14.51
2023-05-02T23:00:34.515Z,14.48
2023-05-02T23:02:36.905Z,14.43
2023-05-02T23:04:38.462Z,14.42
2023-05-02T23:06:40.140Z,14.38
2023-05-02T23:08:41.632Z,14.37
2023-05-02T23:10:43.066Z,14.32
2023-05-02T23:12:44.652Z,14.30
2023-05-02T23:14:46.339Z,14.23
2023-05-02T23:16:49.800Z,14.24
2023-05-02T23:18:52.763Z,14.16
2023-05-02T23:20:56.631Z,14.14
2023-05-02T23:22:58.224Z,14.10
2023-05-02T23:25:00.218Z,14.06
2023-05-02T23:27:01.644Z,14.01
2023-05-02T23:29:03.129Z,13.99
2023-05-02T23:31:05.127Z,13.99
2023-05-02T23:33:06.765Z,13.97
2023-05-02T23:35:08.974Z,13.93
2023-05-02T23:37:11.536Z,13.92
2023-05-02T23:39:13.514Z,13.85
2023-05-02T23:41:15.047Z,13.80
2023-05-02T23:43:16.503Z,13.77
2023-05-02T23:45:21.297Z,13.71
2023-05-02T23:47:27.081Z,13.70
2023-05-02T23:49:28.668Z,13.67
2023-05-02T23:51:31.699Z,13.66
2023-05-02T23:53:33.158Z,13.64
2023-05-02T23:55:34.675Z,13.58
2023-05-02T23:57:37.092Z,13.54
2023-05-02T23:59:38.670Z,13.50
